DKH8949 ZULZ-ZJSY
Flight info
| Callsign | DKH8949 |
|---|---|
| Flight time | 1h 58m |
| Altitude | 33100 |
| Route | NIXID B330 QNX V86 BSE R339 WUY W169 RUNEG V41 DABUB |
| Aircraft | A320/M-SDE3FGHIRWY/LB1 |
Departure
| Time | 2026-05-06 11:55 |
|---|---|
| Airport | Luzhou Yunlong Airport (ZULZ) |
Arrival
| Time | 2026-05-06 13:53 |
|---|---|
| Airport | Sanya Phoenix International Airport (ZJSY) |
| Time | Latitude | Longitude | Altitude | Speed | Heading |
|---|---|---|---|---|---|
| 2026-05-06 11:45 | 29.02450 | 105.46232 | 1102 ft | 0 kts | 163° |
| 2026-05-06 11:46 | 29.02452 | 105.46231 | 1102 ft | 1 kts | 163° |
| 2026-05-06 11:47 | 29.02454 | 105.46230 | 1102 ft | 0 kts | 163° |
| 2026-05-06 11:47 | 29.02455 | 105.46230 | 1102 ft | 0 kts | 163° |
| 2026-05-06 11:50 | 29.02453 | 105.46233 | 1102 ft | 1 kts | 140° |
| 2026-05-06 11:50 | 29.02463 | 105.46238 | 1102 ft | 2 kts | 352° |
| 2026-05-06 11:51 | 29.02510 | 105.46204 | 1102 ft | 9 kts | 311° |
| 2026-05-06 11:51 | 29.02498 | 105.46118 | 1102 ft | 10 kts | 252° |
| 2026-05-06 11:51 | 29.02537 | 105.46071 | 1101 ft | 12 kts | 340° |
| 2026-05-06 11:51 | 29.02621 | 105.46042 | 1101 ft | 12 kts | 343° |
| 2026-05-06 11:52 | 29.02653 | 105.45987 | 1101 ft | 8 kts | 253° |
| 2026-05-06 11:52 | 29.02630 | 105.45904 | 1104 ft | 16 kts | 252° |
| 2026-05-06 11:52 | 29.02587 | 105.45746 | 1106 ft | 24 kts | 252° |
| 2026-05-06 11:52 | 29.02554 | 105.45628 | 1103 ft | 9 kts | 252° |
| 2026-05-06 11:53 | 29.02555 | 105.45571 | 1101 ft | 6 kts | 310° |
| 2026-05-06 11:53 | 29.02591 | 105.45554 | 1101 ft | 7 kts | 343° |
| 2026-05-06 11:53 | 29.02659 | 105.45531 | 1106 ft | 10 kts | 347° |
| 2026-05-06 11:53 | 29.02703 | 105.45567 | 1106 ft | 6 kts | 73° |
| 2026-05-06 11:54 | 29.02703 | 105.45569 | 1106 ft | 0 kts | 72° |
| 2026-05-06 11:54 | 29.02706 | 105.45578 | 1101 ft | 8 kts | 72° |
| 2026-05-06 11:55 | 29.02788 | 105.45873 | 1104 ft | 76 kts | 72° |
| 2026-05-06 11:55 | 29.03010 | 105.46683 | 1098 ft | 135 kts | 72° |
| 2026-05-06 11:55 | 29.03323 | 105.47871 | 1271 ft | 166 kts | 70° |
| 2026-05-06 11:55 | 29.03658 | 105.49120 | 1960 ft | 164 kts | 68° |
| 2026-05-06 11:56 | 29.04000 | 105.50354 | 2687 ft | 162 kts | 65° |
| 2026-05-06 11:56 | 29.04339 | 105.51574 | 3293 ft | 161 kts | 66° |
| 2026-05-06 11:56 | 29.04677 | 105.52787 | 3851 ft | 160 kts | 68° |
| 2026-05-06 11:56 | 29.05009 | 105.53985 | 4360 ft | 163 kts | 69° |
| 2026-05-06 11:57 | 29.05379 | 105.55303 | 4596 ft | 185 kts | 69° |
| 2026-05-06 11:57 | 29.05795 | 105.56788 | 4819 ft | 206 kts | 70° |
| 2026-05-06 11:57 | 29.06236 | 105.58386 | 5348 ft | 214 kts | 70° |
| 2026-05-06 11:57 | 29.06678 | 105.60029 | 5998 ft | 219 kts | 72° |
| 2026-05-06 11:58 | 29.06670 | 105.61794 | 6553 ft | 232 kts | 106° |
| 2026-05-06 11:58 | 29.05750 | 105.63333 | 7121 ft | 242 kts | 139° |
| 2026-05-06 11:58 | 29.04417 | 105.64547 | 7747 ft | 246 kts | 142° |
| 2026-05-06 11:58 | 29.03062 | 105.65754 | 8401 ft | 249 kts | 143° |
| 2026-05-06 11:59 | 29.01705 | 105.66964 | 8997 ft | 253 kts | 143° |
| 2026-05-06 11:59 | 29.00310 | 105.68216 | 9633 ft | 257 kts | 143° |
| 2026-05-06 11:59 | 28.98861 | 105.69428 | 10212 ft | 259 kts | 155° |
| 2026-05-06 11:59 | 28.97160 | 105.70060 | 10749 ft | 261 kts | 176° |
| 2026-05-06 12:00 | 28.95289 | 105.69966 | 10943 ft | 280 kts | 191° |
| 2026-05-06 12:00 | 28.93280 | 105.69664 | 11172 ft | 301 kts | 190° |
| 2026-05-06 12:00 | 28.91121 | 105.69341 | 11334 ft | 325 kts | 190° |
| 2026-05-06 12:00 | 28.88801 | 105.69002 | 11481 ft | 347 kts | 189° |
| 2026-05-06 12:01 | 28.86368 | 105.68657 | 11924 ft | 356 kts | 189° |
| 2026-05-06 12:01 | 28.83924 | 105.68316 | 12535 ft | 360 kts | 189° |
| 2026-05-06 12:01 | 28.81430 | 105.67971 | 13179 ft | 362 kts | 189° |
| 2026-05-06 12:01 | 28.78919 | 105.67624 | 13806 ft | 365 kts | 189° |
| 2026-05-06 12:02 | 28.76389 | 105.67278 | 14365 ft | 367 kts | 189° |
| 2026-05-06 12:02 | 28.73844 | 105.66931 | 14911 ft | 370 kts | 189° |
| 2026-05-06 12:02 | 28.71281 | 105.66578 | 15463 ft | 372 kts | 189° |
| 2026-05-06 12:02 | 28.68701 | 105.66218 | 16007 ft | 375 kts | 189° |
| 2026-05-06 12:03 | 28.66108 | 105.65853 | 16541 ft | 377 kts | 189° |
| 2026-05-06 12:03 | 28.63531 | 105.65491 | 17070 ft | 379 kts | 189° |
| 2026-05-06 12:03 | 28.60901 | 105.65125 | 17580 ft | 382 kts | 189° |
| 2026-05-06 12:03 | 28.58255 | 105.64757 | 18097 ft | 384 kts | 189° |
| 2026-05-06 12:04 | 28.55588 | 105.64386 | 18539 ft | 387 kts | 189° |
| 2026-05-06 12:04 | 28.52907 | 105.64015 | 18967 ft | 390 kts | 189° |
| 2026-05-06 12:04 | 28.50208 | 105.63644 | 19388 ft | 392 kts | 189° |
| 2026-05-06 12:04 | 28.47488 | 105.63268 | 19804 ft | 395 kts | 189° |
| 2026-05-06 12:05 | 28.44750 | 105.62887 | 20238 ft | 397 kts | 189° |
| 2026-05-06 12:05 | 28.42037 | 105.62507 | 20647 ft | 399 kts | 190° |
| 2026-05-06 12:05 | 28.39269 | 105.62119 | 21052 ft | 403 kts | 190° |
| 2026-05-06 12:05 | 28.36479 | 105.61728 | 21453 ft | 405 kts | 191° |
| 2026-05-06 12:06 | 28.33670 | 105.61337 | 21835 ft | 408 kts | 191° |
| 2026-05-06 12:06 | 28.30846 | 105.60946 | 22261 ft | 410 kts | 191° |
| 2026-05-06 12:06 | 28.28006 | 105.60554 | 22618 ft | 413 kts | 191° |
| 2026-05-06 12:06 | 28.25148 | 105.60162 | 22976 ft | 415 kts | 191° |
| 2026-05-06 12:07 | 28.22271 | 105.59767 | 23341 ft | 417 kts | 192° |
| 2026-05-06 12:07 | 28.19380 | 105.59367 | 23677 ft | 420 kts | 192° |
| 2026-05-06 12:07 | 28.16511 | 105.58970 | 23982 ft | 422 kts | 192° |
| 2026-05-06 12:07 | 28.13593 | 105.58566 | 24311 ft | 424 kts | 192° |
| 2026-05-06 12:08 | 28.10660 | 105.58161 | 24639 ft | 425 kts | 192° |
| 2026-05-06 12:08 | 28.07720 | 105.57758 | 24955 ft | 427 kts | 192° |
| 2026-05-06 12:08 | 28.04729 | 105.57597 | 25236 ft | 435 kts | 183° |
| 2026-05-06 12:08 | 28.01701 | 105.57968 | 25547 ft | 440 kts | 178° |
| 2026-05-06 12:09 | 27.98656 | 105.58452 | 25853 ft | 443 kts | 178° |
| 2026-05-06 12:09 | 27.95598 | 105.58936 | 26144 ft | 445 kts | 178° |
| 2026-05-06 12:09 | 27.92564 | 105.59416 | 26459 ft | 447 kts | 178° |
| 2026-05-06 12:09 | 27.89477 | 105.59902 | 26766 ft | 449 kts | 178° |
| 2026-05-06 12:10 | 27.86369 | 105.60389 | 27053 ft | 452 kts | 178° |
| 2026-05-06 12:10 | 27.83249 | 105.60880 | 27336 ft | 454 kts | 177° |
| 2026-05-06 12:10 | 27.80136 | 105.61677 | 27608 ft | 464 kts | 168° |
| 2026-05-06 12:10 | 27.77124 | 105.63066 | 27884 ft | 473 kts | 158° |
| 2026-05-06 12:11 | 27.74216 | 105.64844 | 28134 ft | 476 kts | 156° |
| 2026-05-06 12:11 | 27.71308 | 105.66631 | 28473 ft | 476 kts | 156° |
| 2026-05-06 12:11 | 27.68390 | 105.68413 | 28757 ft | 477 kts | 156° |
| 2026-05-06 12:11 | 27.65479 | 105.70105 | 29013 ft | 477 kts | 158° |
| 2026-05-06 12:12 | 27.62479 | 105.71719 | 29255 ft | 478 kts | 160° |
| 2026-05-06 12:12 | 27.59444 | 105.73261 | 29474 ft | 479 kts | 161° |
| 2026-05-06 12:12 | 27.56382 | 105.74778 | 29694 ft | 481 kts | 161° |
| 2026-05-06 12:12 | 27.53314 | 105.76303 | 29919 ft | 483 kts | 161° |
| 2026-05-06 12:13 | 27.50240 | 105.77858 | 30099 ft | 485 kts | 160° |
| 2026-05-06 12:13 | 27.47165 | 105.79443 | 30290 ft | 487 kts | 160° |
| 2026-05-06 12:13 | 27.44083 | 105.81048 | 30487 ft | 489 kts | 160° |
| 2026-05-06 12:13 | 27.41036 | 105.82642 | 30706 ft | 489 kts | 160° |
| 2026-05-06 12:14 | 27.37963 | 105.84290 | 30995 ft | 490 kts | 159° |
| 2026-05-06 12:14 | 27.34903 | 105.85982 | 31268 ft | 490 kts | 159° |
| 2026-05-06 12:14 | 27.31856 | 105.87692 | 31553 ft | 490 kts | 159° |
| 2026-05-06 12:14 | 27.28809 | 105.89407 | 31816 ft | 489 kts | 159° |
| 2026-05-06 12:15 | 27.25771 | 105.91111 | 32079 ft | 489 kts | 159° |
| 2026-05-06 12:15 | 27.22727 | 105.92807 | 32313 ft | 488 kts | 160° |
| 2026-05-06 12:15 | 27.19682 | 105.94491 | 32576 ft | 488 kts | 160° |
| 2026-05-06 12:15 | 27.16631 | 105.96166 | 32833 ft | 488 kts | 160° |
| 2026-05-06 12:16 | 27.13620 | 105.97816 | 32972 ft | 488 kts | 160° |
| 2026-05-06 12:16 | 27.10584 | 105.99478 | 33005 ft | 483 kts | 160° |
| 2026-05-06 12:16 | 27.04519 | 106.02586 | 33006 ft | 474 kts | 168° |
| 2026-05-06 12:17 | 26.98176 | 106.04122 | 33001 ft | 464 kts | 177° |
| 2026-05-06 12:17 | 26.91801 | 106.05315 | 33000 ft | 465 kts | 177° |
| 2026-05-06 12:18 | 26.85465 | 106.06509 | 33001 ft | 465 kts | 177° |
| 2026-05-06 12:18 | 26.79098 | 106.07704 | 32980 ft | 464 kts | 176° |
| 2026-05-06 12:19 | 26.72736 | 106.08893 | 32990 ft | 463 kts | 176° |
| 2026-05-06 12:19 | 26.66382 | 106.10086 | 32993 ft | 463 kts | 176° |
| 2026-05-06 12:20 | 26.60033 | 106.11272 | 33003 ft | 463 kts | 176° |
| 2026-05-06 12:20 | 26.53725 | 106.12448 | 32982 ft | 463 kts | 176° |
| 2026-05-06 12:21 | 26.47370 | 106.13627 | 32980 ft | 463 kts | 176° |
| 2026-05-06 12:21 | 26.41012 | 106.14807 | 32981 ft | 463 kts | 176° |
| 2026-05-06 12:22 | 26.34646 | 106.15992 | 32987 ft | 464 kts | 176° |
| 2026-05-06 12:22 | 26.28322 | 106.17170 | 32976 ft | 464 kts | 176° |
| 2026-05-06 12:23 | 26.21954 | 106.18354 | 32962 ft | 464 kts | 175° |
| 2026-05-06 12:23 | 26.15581 | 106.19542 | 32949 ft | 465 kts | 175° |
| 2026-05-06 12:24 | 26.09196 | 106.20726 | 32953 ft | 465 kts | 175° |
| 2026-05-06 12:24 | 26.02848 | 106.21912 | 32956 ft | 466 kts | 175° |
| 2026-05-06 12:25 | 25.96460 | 106.23110 | 32959 ft | 465 kts | 175° |
| 2026-05-06 12:25 | 25.90067 | 106.24293 | 32943 ft | 466 kts | 176° |
| 2026-05-06 12:26 | 25.83667 | 106.25472 | 32950 ft | 466 kts | 176° |
| 2026-05-06 12:26 | 25.77315 | 106.26637 | 32943 ft | 466 kts | 176° |
| 2026-05-06 12:27 | 25.70923 | 106.27821 | 32951 ft | 466 kts | 176° |
| 2026-05-06 12:27 | 25.64530 | 106.29002 | 32940 ft | 466 kts | 176° |
| 2026-05-06 12:28 | 25.58130 | 106.30177 | 32921 ft | 466 kts | 175° |
| 2026-05-06 12:28 | 25.51768 | 106.31350 | 32915 ft | 467 kts | 175° |
| 2026-05-06 12:29 | 25.45361 | 106.32528 | 32907 ft | 467 kts | 175° |
| 2026-05-06 12:29 | 25.38949 | 106.33703 | 32909 ft | 467 kts | 175° |
| 2026-05-06 12:30 | 25.32546 | 106.34879 | 32911 ft | 467 kts | 176° |
| 2026-05-06 12:30 | 25.26137 | 106.36055 | 32921 ft | 467 kts | 176° |
| 2026-05-06 12:31 | 25.19769 | 106.37221 | 32920 ft | 467 kts | 176° |
| 2026-05-06 12:31 | 25.13356 | 106.38395 | 32921 ft | 467 kts | 176° |
| 2026-05-06 12:32 | 25.06953 | 106.39566 | 32921 ft | 467 kts | 176° |
| 2026-05-06 12:32 | 25.00547 | 106.40738 | 32907 ft | 466 kts | 176° |
| 2026-05-06 12:33 | 24.94191 | 106.41886 | 32913 ft | 466 kts | 176° |
| 2026-05-06 12:33 | 24.87795 | 106.43039 | 32915 ft | 466 kts | 176° |
| 2026-05-06 12:34 | 24.81401 | 106.44200 | 32919 ft | 465 kts | 176° |
| 2026-05-06 12:34 | 24.75011 | 106.45351 | 32918 ft | 465 kts | 176° |
| 2026-05-06 12:35 | 24.68659 | 106.46486 | 32922 ft | 466 kts | 176° |
| 2026-05-06 12:35 | 24.62261 | 106.47643 | 32919 ft | 466 kts | 175° |
| 2026-05-06 12:36 | 24.55861 | 106.48798 | 32919 ft | 466 kts | 175° |
| 2026-05-06 12:36 | 24.49459 | 106.49945 | 32935 ft | 467 kts | 175° |
| 2026-05-06 12:37 | 24.43090 | 106.51088 | 32927 ft | 467 kts | 175° |
| 2026-05-06 12:37 | 24.36682 | 106.52240 | 32926 ft | 467 kts | 175° |
| 2026-05-06 12:38 | 24.30271 | 106.53395 | 32921 ft | 467 kts | 175° |
| 2026-05-06 12:38 | 24.23867 | 106.54537 | 32920 ft | 466 kts | 175° |
| 2026-05-06 12:39 | 24.17500 | 106.55680 | 32914 ft | 466 kts | 175° |
| 2026-05-06 12:39 | 24.11099 | 106.56830 | 32912 ft | 466 kts | 175° |
| 2026-05-06 12:40 | 24.04694 | 106.57967 | 32894 ft | 467 kts | 175° |
| 2026-05-06 12:40 | 23.98289 | 106.59123 | 32894 ft | 467 kts | 173° |
| 2026-05-06 12:41 | 23.92198 | 106.61614 | 32890 ft | 478 kts | 153° |
| 2026-05-06 12:41 | 23.89477 | 106.63722 | 32891 ft | 482 kts | 142° |
| 2026-05-06 12:41 | 23.87103 | 106.66324 | 32889 ft | 485 kts | 135° |
| 2026-05-06 12:42 | 23.82536 | 106.71760 | 32888 ft | 486 kts | 135° |
| 2026-05-06 12:42 | 23.77934 | 106.77162 | 32884 ft | 486 kts | 136° |
| 2026-05-06 12:43 | 23.73349 | 106.82531 | 32876 ft | 487 kts | 135° |
| 2026-05-06 12:43 | 23.68738 | 106.87940 | 32891 ft | 487 kts | 135° |
| 2026-05-06 12:44 | 23.64124 | 106.93350 | 32893 ft | 487 kts | 135° |
| 2026-05-06 12:44 | 23.59512 | 106.98752 | 32895 ft | 487 kts | 135° |
| 2026-05-06 12:45 | 23.54929 | 107.04122 | 32903 ft | 487 kts | 135° |
| 2026-05-06 12:46 | 23.48005 | 107.12224 | 32908 ft | 487 kts | 136° |
| 2026-05-06 12:46 | 23.43385 | 107.17616 | 32912 ft | 487 kts | 135° |
| 2026-05-06 12:47 | 23.38794 | 107.22967 | 32910 ft | 487 kts | 136° |
| 2026-05-06 12:47 | 23.34161 | 107.28339 | 32913 ft | 487 kts | 136° |
| 2026-05-06 12:48 | 23.29509 | 107.33692 | 32923 ft | 487 kts | 136° |
| 2026-05-06 12:48 | 23.24856 | 107.39038 | 32925 ft | 487 kts | 136° |
| 2026-05-06 12:49 | 23.20202 | 107.44398 | 32934 ft | 488 kts | 136° |
| 2026-05-06 12:49 | 23.15565 | 107.49726 | 32932 ft | 489 kts | 136° |
| 2026-05-06 12:50 | 23.10891 | 107.55091 | 32930 ft | 489 kts | 136° |
| 2026-05-06 12:50 | 23.06210 | 107.60459 | 32931 ft | 489 kts | 136° |
| 2026-05-06 12:51 | 23.01512 | 107.65801 | 32921 ft | 489 kts | 136° |
| 2026-05-06 12:51 | 22.96857 | 107.71134 | 32923 ft | 490 kts | 136° |
| 2026-05-06 12:52 | 22.92187 | 107.76528 | 32914 ft | 490 kts | 136° |
| 2026-05-06 12:52 | 22.87515 | 107.81909 | 32916 ft | 490 kts | 136° |
| 2026-05-06 12:53 | 22.82827 | 107.87287 | 32928 ft | 491 kts | 136° |
| 2026-05-06 12:53 | 22.78174 | 107.92629 | 32934 ft | 491 kts | 136° |
| 2026-05-06 12:54 | 22.73488 | 107.98004 | 32928 ft | 491 kts | 136° |
| 2026-05-06 12:54 | 22.68793 | 108.03370 | 32938 ft | 490 kts | 136° |
| 2026-05-06 12:55 | 22.64104 | 108.08722 | 32945 ft | 490 kts | 136° |
| 2026-05-06 12:55 | 22.58862 | 108.13192 | 32946 ft | 480 kts | 155° |
| 2026-05-06 12:56 | 22.52685 | 108.15600 | 32944 ft | 468 kts | 174° |
| 2026-05-06 12:56 | 22.46257 | 108.16408 | 32958 ft | 465 kts | 178° |
| 2026-05-06 12:57 | 22.39827 | 108.17147 | 32957 ft | 465 kts | 178° |
| 2026-05-06 12:57 | 22.33439 | 108.17882 | 32956 ft | 465 kts | 178° |
| 2026-05-06 12:58 | 22.27014 | 108.18614 | 32967 ft | 464 kts | 178° |
| 2026-05-06 12:58 | 22.20598 | 108.19340 | 32971 ft | 463 kts | 178° |
| 2026-05-06 12:59 | 22.14187 | 108.20067 | 32977 ft | 463 kts | 178° |
| 2026-05-06 12:59 | 22.07822 | 108.20781 | 32971 ft | 462 kts | 178° |
| 2026-05-06 13:00 | 22.01422 | 108.21510 | 32964 ft | 463 kts | 178° |
| 2026-05-06 13:00 | 21.95019 | 108.22242 | 32967 ft | 463 kts | 178° |
| 2026-05-06 13:01 | 21.88607 | 108.22974 | 32979 ft | 463 kts | 178° |
| 2026-05-06 13:01 | 21.82236 | 108.23691 | 32982 ft | 463 kts | 178° |
| 2026-05-06 13:02 | 21.75822 | 108.24412 | 32987 ft | 463 kts | 178° |
| 2026-05-06 13:02 | 21.69409 | 108.25137 | 32984 ft | 463 kts | 178° |
| 2026-05-06 13:03 | 21.63003 | 108.25857 | 32991 ft | 463 kts | 178° |
| 2026-05-06 13:03 | 21.56642 | 108.26573 | 32991 ft | 462 kts | 178° |
| 2026-05-06 13:04 | 21.50250 | 108.27301 | 32989 ft | 462 kts | 178° |
| 2026-05-06 13:04 | 21.43858 | 108.28017 | 32986 ft | 461 kts | 178° |
| 2026-05-06 13:05 | 21.37478 | 108.28729 | 32986 ft | 461 kts | 178° |
| 2026-05-06 13:05 | 21.31100 | 108.29444 | 32991 ft | 461 kts | 178° |
| 2026-05-06 13:06 | 21.24769 | 108.30155 | 32993 ft | 461 kts | 178° |
| 2026-05-06 13:06 | 21.18444 | 108.29972 | 32997 ft | 452 kts | 193° |
| 2026-05-06 13:07 | 21.12225 | 108.28917 | 32995 ft | 452 kts | 192° |
| 2026-05-06 13:07 | 21.06010 | 108.27871 | 32992 ft | 452 kts | 192° |
| 2026-05-06 13:08 | 20.99838 | 108.26828 | 32991 ft | 452 kts | 192° |
| 2026-05-06 13:08 | 20.93625 | 108.25780 | 32990 ft | 452 kts | 192° |
| 2026-05-06 13:09 | 20.87409 | 108.24747 | 32994 ft | 452 kts | 192° |
| 2026-05-06 13:09 | 20.81197 | 108.23716 | 32991 ft | 452 kts | 192° |
| 2026-05-06 13:10 | 20.74985 | 108.22682 | 32980 ft | 452 kts | 192° |
| 2026-05-06 13:10 | 20.68806 | 108.21644 | 32983 ft | 453 kts | 192° |
| 2026-05-06 13:11 | 20.62580 | 108.20602 | 32986 ft | 453 kts | 192° |
| 2026-05-06 13:11 | 20.56337 | 108.19659 | 32984 ft | 455 kts | 185° |
| 2026-05-06 13:11 | 20.53161 | 108.19809 | 32985 ft | 460 kts | 174° |
| 2026-05-06 13:12 | 20.50044 | 108.20629 | 32987 ft | 464 kts | 162° |
| 2026-05-06 13:12 | 20.47154 | 108.22081 | 32977 ft | 468 kts | 150° |
| 2026-05-06 13:12 | 20.44542 | 108.24161 | 32980 ft | 471 kts | 138° |
| 2026-05-06 13:13 | 20.39840 | 108.29046 | 32976 ft | 472 kts | 137° |
| 2026-05-06 13:13 | 20.35129 | 108.33929 | 32978 ft | 473 kts | 137° |
| 2026-05-06 13:14 | 20.30405 | 108.38807 | 32982 ft | 473 kts | 137° |
| 2026-05-06 13:14 | 20.25713 | 108.43654 | 32987 ft | 473 kts | 137° |
| 2026-05-06 13:15 | 20.20985 | 108.48538 | 32990 ft | 474 kts | 137° |
| 2026-05-06 13:15 | 20.16248 | 108.53420 | 32993 ft | 474 kts | 137° |
| 2026-05-06 13:16 | 20.11540 | 108.58265 | 32992 ft | 474 kts | 137° |
| 2026-05-06 13:16 | 20.06805 | 108.63144 | 33001 ft | 474 kts | 137° |
| 2026-05-06 13:17 | 20.02068 | 108.68019 | 33005 ft | 474 kts | 137° |
| 2026-05-06 13:17 | 19.97334 | 108.72888 | 33008 ft | 473 kts | 137° |
| 2026-05-06 13:18 | 19.92602 | 108.77752 | 33011 ft | 473 kts | 137° |
| 2026-05-06 13:18 | 19.87897 | 108.82585 | 33009 ft | 474 kts | 137° |
| 2026-05-06 13:19 | 19.83156 | 108.87455 | 33005 ft | 474 kts | 137° |
| 2026-05-06 13:19 | 19.78411 | 108.92319 | 33006 ft | 474 kts | 137° |
| 2026-05-06 13:20 | 19.73663 | 108.97180 | 33002 ft | 474 kts | 137° |
| 2026-05-06 13:20 | 19.68943 | 109.02007 | 32724 ft | 476 kts | 137° |
| 2026-05-06 13:20 | 19.66550 | 109.04454 | 31928 ft | 478 kts | 137° |
| 2026-05-06 13:21 | 19.64167 | 109.06888 | 31327 ft | 474 kts | 137° |
| 2026-05-06 13:21 | 19.61794 | 109.09309 | 30709 ft | 472 kts | 137° |
| 2026-05-06 13:21 | 19.59440 | 109.11711 | 30098 ft | 469 kts | 137° |
| 2026-05-06 13:21 | 19.57094 | 109.14107 | 29426 ft | 467 kts | 137° |
| 2026-05-06 13:22 | 19.54738 | 109.16443 | 28838 ft | 461 kts | 142° |
| 2026-05-06 13:22 | 19.52155 | 109.18338 | 28258 ft | 455 kts | 153° |
| 2026-05-06 13:22 | 19.49296 | 109.19702 | 27703 ft | 448 kts | 163° |
| 2026-05-06 13:22 | 19.46303 | 109.20504 | 27156 ft | 441 kts | 171° |
| 2026-05-06 13:23 | 19.43298 | 109.21108 | 26624 ft | 437 kts | 171° |
| 2026-05-06 13:23 | 19.40326 | 109.21712 | 26091 ft | 433 kts | 171° |
| 2026-05-06 13:23 | 19.37376 | 109.22316 | 25599 ft | 429 kts | 171° |
| 2026-05-06 13:23 | 19.34458 | 109.22917 | 25097 ft | 426 kts | 171° |
| 2026-05-06 13:24 | 19.31564 | 109.23513 | 24611 ft | 422 kts | 171° |
| 2026-05-06 13:24 | 19.28697 | 109.24102 | 24124 ft | 418 kts | 171° |
| 2026-05-06 13:24 | 19.25887 | 109.24678 | 23647 ft | 416 kts | 171° |
| 2026-05-06 13:24 | 19.23055 | 109.25254 | 23104 ft | 413 kts | 171° |
| 2026-05-06 13:25 | 19.20247 | 109.25824 | 22626 ft | 409 kts | 171° |
| 2026-05-06 13:25 | 19.17469 | 109.26389 | 22140 ft | 404 kts | 171° |
| 2026-05-06 13:25 | 19.14718 | 109.26949 | 21660 ft | 401 kts | 171° |
| 2026-05-06 13:25 | 19.11987 | 109.27506 | 21166 ft | 399 kts | 171° |
| 2026-05-06 13:26 | 19.09272 | 109.28060 | 20668 ft | 396 kts | 171° |
| 2026-05-06 13:26 | 19.06571 | 109.28611 | 20163 ft | 395 kts | 171° |
| 2026-05-06 13:26 | 19.03917 | 109.29155 | 19672 ft | 393 kts | 171° |
| 2026-05-06 13:26 | 19.01233 | 109.29703 | 19178 ft | 392 kts | 171° |
| 2026-05-06 13:27 | 18.98556 | 109.30246 | 18676 ft | 391 kts | 171° |
| 2026-05-06 13:27 | 18.95881 | 109.30788 | 18164 ft | 391 kts | 171° |
| 2026-05-06 13:27 | 18.93207 | 109.31330 | 17614 ft | 390 kts | 171° |
| 2026-05-06 13:27 | 18.90549 | 109.31871 | 17117 ft | 388 kts | 171° |
| 2026-05-06 13:28 | 18.87909 | 109.32410 | 16625 ft | 385 kts | 171° |
| 2026-05-06 13:28 | 18.85286 | 109.32943 | 16130 ft | 383 kts | 171° |
| 2026-05-06 13:28 | 18.82677 | 109.33472 | 15720 ft | 379 kts | 171° |
| 2026-05-06 13:28 | 18.80121 | 109.33989 | 15257 ft | 378 kts | 171° |
| 2026-05-06 13:29 | 18.77551 | 109.34511 | 14768 ft | 377 kts | 171° |
| 2026-05-06 13:29 | 18.75001 | 109.35029 | 14430 ft | 370 kts | 171° |
| 2026-05-06 13:29 | 18.72476 | 109.35542 | 13961 ft | 368 kts | 171° |
| 2026-05-06 13:29 | 18.69983 | 109.36047 | 13209 ft | 361 kts | 171° |
| 2026-05-06 13:30 | 18.67580 | 109.36536 | 12731 ft | 344 kts | 170° |
| 2026-05-06 13:30 | 18.65275 | 109.37004 | 12296 ft | 334 kts | 171° |
| 2026-05-06 13:30 | 18.62989 | 109.37466 | 11835 ft | 335 kts | 171° |
| 2026-05-06 13:30 | 18.60701 | 109.37929 | 11375 ft | 335 kts | 171° |
| 2026-05-06 13:31 | 18.58459 | 109.38385 | 11005 ft | 332 kts | 170° |
| 2026-05-06 13:31 | 18.56193 | 109.38845 | 10546 ft | 331 kts | 170° |
| 2026-05-06 13:31 | 18.53970 | 109.39297 | 10383 ft | 320 kts | 170° |
| 2026-05-06 13:31 | 18.51826 | 109.39713 | 10265 ft | 307 kts | 175° |
| 2026-05-06 13:32 | 18.49742 | 109.39604 | 10019 ft | 298 kts | 195° |
| 2026-05-06 13:32 | 18.47864 | 109.38720 | 9632 ft | 295 kts | 217° |
| 2026-05-06 13:32 | 18.46407 | 109.37221 | 9100 ft | 293 kts | 232° |
| 2026-05-06 13:32 | 18.45131 | 109.35542 | 8723 ft | 292 kts | 231° |
| 2026-05-06 13:33 | 18.43872 | 109.33900 | 8273 ft | 291 kts | 231° |
| 2026-05-06 13:33 | 18.42602 | 109.32255 | 7914 ft | 287 kts | 231° |
| 2026-05-06 13:33 | 18.41347 | 109.30635 | 7328 ft | 284 kts | 231° |
| 2026-05-06 13:33 | 18.40106 | 109.29032 | 6833 ft | 283 kts | 231° |
| 2026-05-06 13:34 | 18.38984 | 109.27326 | 6374 ft | 285 kts | 244° |
| 2026-05-06 13:34 | 18.38356 | 109.25360 | 5993 ft | 281 kts | 261° |
| 2026-05-06 13:34 | 18.38114 | 109.23397 | 5787 ft | 262 kts | 262° |
| 2026-05-06 13:34 | 18.37872 | 109.21494 | 5251 ft | 259 kts | 261° |
| 2026-05-06 13:35 | 18.37633 | 109.19692 | 5098 ft | 249 kts | 260° |
| 2026-05-06 13:35 | 18.37092 | 109.17997 | 4967 ft | 243 kts | 233° |
| 2026-05-06 13:35 | 18.35811 | 109.16891 | 4782 ft | 241 kts | 200° |
| 2026-05-06 13:35 | 18.34175 | 109.16691 | 4395 ft | 238 kts | 171° |
| 2026-05-06 13:36 | 18.32540 | 109.16931 | 4034 ft | 235 kts | 169° |
| 2026-05-06 13:36 | 18.30939 | 109.17167 | 3689 ft | 230 kts | 169° |
| 2026-05-06 13:36 | 18.29385 | 109.17449 | 3351 ft | 222 kts | 158° |
| 2026-05-06 13:36 | 18.28154 | 109.18336 | 3024 ft | 213 kts | 127° |
| 2026-05-06 13:37 | 18.27597 | 109.19694 | 2852 ft | 200 kts | 98° |
| 2026-05-06 13:37 | 18.27673 | 109.21117 | 2797 ft | 190 kts | 84° |
| 2026-05-06 13:37 | 18.27852 | 109.22476 | 2692 ft | 186 kts | 84° |
| 2026-05-06 13:37 | 18.28027 | 109.23809 | 2590 ft | 182 kts | 84° |
| 2026-05-06 13:38 | 18.28189 | 109.25045 | 2501 ft | 159 kts | 84° |
| 2026-05-06 13:38 | 18.28333 | 109.26140 | 2426 ft | 146 kts | 84° |
| 2026-05-06 13:38 | 18.28468 | 109.27180 | 2346 ft | 141 kts | 83° |
| 2026-05-06 13:38 | 18.28599 | 109.28192 | 2252 ft | 141 kts | 84° |
| 2026-05-06 13:39 | 18.28730 | 109.29204 | 2050 ft | 141 kts | 85° |
| 2026-05-06 13:39 | 18.28863 | 109.30210 | 1871 ft | 138 kts | 85° |
| 2026-05-06 13:39 | 18.28993 | 109.31203 | 1659 ft | 137 kts | 83° |
| 2026-05-06 13:39 | 18.29116 | 109.32191 | 1486 ft | 136 kts | 85° |
| 2026-05-06 13:40 | 18.29241 | 109.33176 | 1301 ft | 136 kts | 84° |
| 2026-05-06 13:40 | 18.29374 | 109.34155 | 1118 ft | 135 kts | 83° |
| 2026-05-06 13:40 | 18.29503 | 109.35138 | 944 ft | 137 kts | 82° |
| 2026-05-06 13:40 | 18.29627 | 109.36130 | 787 ft | 139 kts | 85° |
| 2026-05-06 13:41 | 18.29753 | 109.37118 | 589 ft | 136 kts | 83° |
| 2026-05-06 13:41 | 18.29887 | 109.38122 | 406 ft | 138 kts | 84° |
| 2026-05-06 13:41 | 18.30014 | 109.39129 | 220 ft | 139 kts | 82° |
| 2026-05-06 13:41 | 18.30151 | 109.40126 | 97 ft | 130 kts | 83° |
| 2026-05-06 13:42 | 18.30267 | 109.41054 | 256 ft | 135 kts | 83° |
| 2026-05-06 13:42 | 18.30404 | 109.42023 | 955 ft | 134 kts | 85° |
| 2026-05-06 13:42 | 18.30535 | 109.42957 | 1792 ft | 127 kts | 84° |
| 2026-05-06 13:42 | 18.30664 | 109.43905 | 2450 ft | 134 kts | 85° |
| 2026-05-06 13:43 | 18.30627 | 109.44946 | 2594 ft | 162 kts | 117° |
| 2026-05-06 13:43 | 18.29753 | 109.45794 | 2773 ft | 188 kts | 159° |
| 2026-05-06 13:43 | 18.28404 | 109.45749 | 2985 ft | 217 kts | 201° |
| 2026-05-06 13:43 | 18.27101 | 109.44792 | 3431 ft | 237 kts | 219° |
| 2026-05-06 13:44 | 18.25937 | 109.43552 | 4251 ft | 240 kts | 225° |
| 2026-05-06 13:44 | 18.24804 | 109.42232 | 4729 ft | 245 kts | 226° |
| 2026-05-06 13:44 | 18.23669 | 109.40903 | 4857 ft | 244 kts | 226° |
| 2026-05-06 13:44 | 18.22460 | 109.39516 | 4902 ft | 269 kts | 226° |
| 2026-05-06 13:45 | 18.21290 | 109.37956 | 4897 ft | 275 kts | 239° |
| 2026-05-06 13:45 | 18.20255 | 109.34109 | 4899 ft | 279 kts | 261° |
| 2026-05-06 13:45 | 18.20005 | 109.32117 | 4753 ft | 266 kts | 261° |
| 2026-05-06 13:46 | 18.19766 | 109.30271 | 4629 ft | 244 kts | 261° |
| 2026-05-06 13:46 | 18.19541 | 109.28569 | 4447 ft | 228 kts | 259° |
| 2026-05-06 13:46 | 18.19322 | 109.26928 | 4045 ft | 228 kts | 260° |
| 2026-05-06 13:46 | 18.19095 | 109.25247 | 3589 ft | 236 kts | 259° |
| 2026-05-06 13:47 | 18.19094 | 109.23501 | 3133 ft | 242 kts | 283° |
| 2026-05-06 13:47 | 18.19826 | 109.21990 | 2990 ft | 223 kts | 311° |
| 2026-05-06 13:47 | 18.20989 | 109.21046 | 2995 ft | 211 kts | 334° |
| 2026-05-06 13:47 | 18.22280 | 109.20357 | 2997 ft | 207 kts | 335° |
| 2026-05-06 13:48 | 18.23596 | 109.19776 | 3019 ft | 204 kts | 350° |
| 2026-05-06 13:48 | 18.24987 | 109.19736 | 3004 ft | 200 kts | 14° |
| 2026-05-06 13:48 | 18.26262 | 109.20251 | 2997 ft | 195 kts | 38° |
| 2026-05-06 13:48 | 18.27220 | 109.21175 | 2863 ft | 178 kts | 58° |
| 2026-05-06 13:49 | 18.27620 | 109.21894 | 2803 ft | 168 kts | 69° |
| 2026-05-06 13:49 | 18.27967 | 109.23462 | 2663 ft | 163 kts | 86° |
| 2026-05-06 13:49 | 18.28116 | 109.24621 | 2574 ft | 162 kts | 84° |
| 2026-05-06 13:49 | 18.28270 | 109.25790 | 2472 ft | 162 kts | 84° |
| 2026-05-06 13:50 | 18.28425 | 109.26956 | 2382 ft | 155 kts | 84° |
| 2026-05-06 13:50 | 18.28569 | 109.28027 | 2277 ft | 146 kts | 84° |
| 2026-05-06 13:50 | 18.28708 | 109.29072 | 2073 ft | 141 kts | 85° |
| 2026-05-06 13:50 | 18.28840 | 109.30082 | 1867 ft | 139 kts | 85° |
| 2026-05-06 13:51 | 18.28979 | 109.31073 | 1682 ft | 136 kts | 83° |
| 2026-05-06 13:51 | 18.29112 | 109.32059 | 1498 ft | 137 kts | 84° |
| 2026-05-06 13:51 | 18.29231 | 109.33027 | 1311 ft | 136 kts | 85° |
| 2026-05-06 13:51 | 18.29355 | 109.34005 | 1115 ft | 134 kts | 83° |
| 2026-05-06 13:52 | 18.29476 | 109.34985 | 942 ft | 136 kts | 82° |
| 2026-05-06 13:52 | 18.29602 | 109.35975 | 769 ft | 139 kts | 84° |
| 2026-05-06 13:52 | 18.29736 | 109.36964 | 596 ft | 136 kts | 83° |
| 2026-05-06 13:52 | 18.29863 | 109.37963 | 405 ft | 137 kts | 84° |
| 2026-05-06 13:53 | 18.29994 | 109.38966 | 217 ft | 139 kts | 83° |
| 2026-05-06 13:53 | 18.30126 | 109.39965 | 94 ft | 132 kts | 84° |
| 2026-05-06 13:53 | 18.30234 | 109.40787 | 83 ft | 92 kts | 82° |
| 2026-05-06 13:53 | 18.30298 | 109.41278 | 86 ft | 48 kts | 82° |
| 2026-05-06 13:54 | 18.30335 | 109.41560 | 88 ft | 26 kts | 82° |
| 2026-05-06 13:54 | 18.30369 | 109.41698 | 89 ft | 17 kts | 66° |
| 2026-05-06 13:54 | 18.30429 | 109.41798 | 87 ft | 15 kts | 52° |
| 2026-05-06 13:54 | 18.30490 | 109.41867 | 87 ft | 12 kts | 25° |
| 2026-05-06 13:55 | 18.30539 | 109.41840 | 86 ft | 8 kts | 284° |
| 2026-05-06 13:55 | 18.30538 | 109.41786 | 84 ft | 7 kts | 262° |
| 2026-05-06 13:55 | 18.30529 | 109.41722 | 84 ft | 13 kts | 262° |
| 2026-05-06 13:55 | 18.30513 | 109.41597 | 87 ft | 21 kts | 262° |
| 2026-05-06 13:56 | 18.30490 | 109.41420 | 84 ft | 25 kts | 262° |
| 2026-05-06 13:56 | 18.30482 | 109.41319 | 84 ft | 9 kts | 282° |
| 2026-05-06 13:56 | 18.30530 | 109.41291 | 84 ft | 8 kts | 355° |
| 2026-05-06 13:56 | 18.30610 | 109.41281 | 85 ft | 17 kts | 351° |
| 2026-05-06 13:57 | 18.30726 | 109.41262 | 84 ft | 10 kts | 352° |
| 2026-05-06 13:57 | 18.30776 | 109.41231 | 84 ft | 8 kts | 301° |
| 2026-05-06 13:57 | 18.30775 | 109.41163 | 89 ft | 11 kts | 261° |
| 2026-05-06 13:57 | 18.30767 | 109.41091 | 84 ft | 10 kts | 263° |
| 2026-05-06 13:58 | 18.30755 | 109.41001 | 85 ft | 14 kts | 262° |
| 2026-05-06 13:58 | 18.30743 | 109.40907 | 84 ft | 9 kts | 262° |
| 2026-05-06 13:58 | 18.30751 | 109.40864 | 88 ft | 5 kts | 313° |
| 2026-05-06 13:58 | 18.30780 | 109.40857 | 85 ft | 5 kts | 353° |
| 2026-05-06 13:59 | 18.30820 | 109.40851 | 85 ft | 3 kts | 352° |
| 2026-05-06 13:59 | 18.30834 | 109.40849 | 84 ft | 0 kts | 352° |